Time;durP1;ratioP1;P1;durP2;ratioP2;P2;SDS_P1;SDS_P2;PMS_P1;PMS_P2;Temp;Humidity;BMP_temperature;BMP_pressure;BME280_temperature;BME280_humidity;BME280_pressure;Samples;Min_cycle;Max_cycle;Signal;HPM_P1;HPM_P2
2022/09/26 00:01:51;;;;;;;0.00;0.00;;;10.20;99.90;;;;;;5110089;28;20053;-78
2022/09/26 00:04:27;;;;;;;0.00;0.00;;;10.20;99.90;;;;;;5109875;28;20044;-79
2022/09/26 00:06:55;;;;;;;0.00;0.00;;;10.10;99.90;;;;;;5110023;28;20079;-79
2022/09/26 00:09:22;;;;;;;0.00;0.00;;;10.10;99.90;;;;;;5108968;28;20036;-79
2022/09/26 00:11:48;;;;;;;0.10;0.10;;;10.10;99.90;;;;;;5108912;28;20042;-78
2022/09/26 00:14:18;;;;;;;0.85;0.75;;;10.10;99.90;;;;;;5109640;28;20024;-79
2022/09/26 00:16:44;;;;;;;0.00;0.00;;;10.00;99.90;;;;;;5108572;28;20059;-78
2022/09/26 00:19:10;;;;;;;0.00;0.00;;;10.00;99.90;;;;;;5109414;28;20084;-78
2022/09/26 00:21:36;;;;;;;0.00;0.00;;;10.00;99.90;;;;;;5108827;28;20052;-79
2022/09/26 00:24:02;;;;;;;0.10;0.10;;;10.10;99.90;;;;;;5110749;28;20047;-79
2022/09/26 00:26:30;;;;;;;0.00;0.00;;;10.00;99.90;;;;;;5109747;28;20059;-78
2022/09/26 00:28:57;;;;;;;0.00;0.00;;;10.00;99.90;;;;;;5108628;28;20044;-78
2022/09/26 00:31:29;;;;;;;0.03;0.03;;;10.10;99.90;;;;;;5109835;28;20044;-78
2022/09/26 00:33:55;;;;;;;0.10;0.10;;;10.10;99.90;;;;;;5108571;28;20061;-80
2022/09/26 00:36:21;;;;;;;0.00;0.00;;;10.10;99.90;;;;;;5108475;28;20389;-79
2022/09/26 00:38:46;;;;;;;0.17;0.03;;;10.10;99.90;;;;;;5110416;28;20047;-79
2022/09/26 00:41:12;;;;;;;0.32;0.28;;;10.10;99.90;;;;;;5108451;28;20354;-78
2022/09/26 00:43:44;;;;;;;0.08;0.08;;;10.10;99.90;;;;;;5107728;28;20057;-79
2022/09/26 00:46:10;;;;;;;0.10;0.10;;;10.10;99.90;;;;;;5109487;28;20047;-78
2022/09/26 00:48:39;;;;;;;0.28;0.10;;;10.10;99.90;;;;;;5107642;28;20039;-79
2022/09/26 00:51:05;;;;;;;0.00;0.00;;;10.20;99.90;;;;;;5108254;28;20032;-79
2022/09/26 00:53:36;;;;;;;0.00;0.00;;;10.20;99.90;;;;;;5108466;28;20044;-79
2022/09/26 00:56:08;;;;;;;0.57;0.13;;;10.10;99.90;;;;;;5108461;28;20028;-78
2022/09/26 00:58:45;;;;;;;0.45;0.20;;;10.10;99.90;;;;;;5108773;28;20043;-80
2022/09/26 01:01:12;;;;;;;0.00;0.00;;;10.10;99.90;;;;;;5107115;28;20044;-79
2022/09/26 01:03:39;;;;;;;1.10;0.55;;;10.00;99.90;;;;;;5106412;28;20350;-79
2022/09/26 01:06:05;;;;;;;0.00;0.00;;;10.00;99.90;;;;;;5106709;28;20032;-77
2022/09/26 01:08:43;;;;;;;0.00;0.00;;;10.00;99.90;;;;;;5105973;28;20047;-78
2022/09/26 01:11:10;;;;;;;0.00;0.00;;;10.00;99.90;;;;;;5090871;28;20170;-79
2022/09/26 01:13:36;;;;;;;0.45;0.30;;;10.00;99.90;;;;;;5107408;28;20052;-79
2022/09/26 01:16:02;;;;;;;0.90;0.63;;;9.90;99.90;;;;;;5104957;28;20052;-80
2022/09/26 01:18:28;;;;;;;0.00;0.00;;;9.90;99.90;;;;;;5105673;28;20047;-77
2022/09/26 01:21:23;;;;;;;4.15;0.80;;;10.00;99.90;;;;;;5106655;28;20040;-79
2022/09/26 01:24:15;;;;;;;0.03;0.03;;;10.00;99.90;;;;;;5106473;28;20044;-79
2022/09/26 01:27:04;;;;;;;0.00;0.00;;;10.00;99.90;;;;;;5107424;28;20040;-78
2022/09/26 01:30:04;;;;;;;0.00;0.00;;;10.10;99.90;;;;;;5106832;28;20044;-78
2022/09/26 01:33:00;;;;;;;0.15;0.15;;;10.20;99.90;;;;;;5107791;28;20047;-79
2022/09/26 01:35:55;;;;;;;11.43;0.45;;;10.10;99.90;;;;;;5088888;28;20055;-79
2022/09/26 01:38:24;;;;;;;0.00;0.00;;;10.30;99.90;;;;;;5108020;28;20039;-78
2022/09/26 01:41:23;;;;;;;0.00;0.00;;;10.40;99.90;;;;;;5105435;28;20056;-78
2022/09/26 01:43:54;;;;;;;0.20;0.20;;;10.40;99.90;;;;;;5086218;28;20483;-80
2022/09/26 01:46:43;;;;;;;0.45;0.20;;;10.50;99.90;;;;;;5085104;28;20059;-79
2022/09/26 01:49:11;;;;;;;0.17;0.17;;;10.50;99.90;;;;;;5086717;28;20092;-79
2022/09/26 01:51:50;;;;;;;0.10;0.10;;;10.60;99.90;;;;;;5091683;28;20044;-79
2022/09/26 01:54:23;;;;;;;0.00;0.00;;;10.60;99.90;;;;;;5104597;28;20040;-78
2022/09/26 01:56:50;;;;;;;12.55;1.38;;;10.60;99.90;;;;;;5118354;22;20064;-74
2022/09/26 01:59:22;;;;;;;0.00;0.00;;;10.60;99.90;;;;;;5068591;28;20086;-75
2022/09/26 02:01:54;;;;;;;12.40;1.73;;;10.70;99.90;;;;;;5072647;28;20106;-75
2022/09/26 02:04:26;;;;;;;3.13;1.38;;;10.70;99.90;;;;;;5063182;28;20098;-75
2022/09/26 02:07:20;;;;;;;0.00;0.00;;;10.70;99.90;;;;;;5059062;28;20052;-75
2022/09/26 02:09:51;;;;;;;0.20;0.20;;;10.70;99.90;;;;;;5071381;28;20093;-76
2022/09/26 02:12:25;;;;;;;0.00;0.00;;;10.70;99.90;;;;;;5082798;28;20071;-75
2022/09/26 02:14:55;;;;;;;0.13;0.13;;;10.70;99.90;;;;;;5068971;28;20060;-75
2022/09/26 02:17:27;;;;;;;0.30;0.30;;;10.70;99.90;;;;;;5062593;28;20495;-75
2022/09/26 02:19:59;;;;;;;0.00;0.00;;;10.70;99.90;;;;;;5062222;28;20079;-76
2022/09/26 02:22:28;;;;;;;0.00;0.00;;;10.70;99.90;;;;;;5062606;28;20075;-75
2022/09/26 02:24:54;;;;;;;0.00;0.00;;;10.70;99.90;;;;;;5063042;28;20060;-76
2022/09/26 02:27:20;;;;;;;0.00;0.00;;;10.60;99.90;;;;;;5062683;28;20052;-75
2022/09/26 02:29:46;;;;;;;0.25;0.20;;;10.60;99.90;;;;;;5063283;28;20051;-76
2022/09/26 02:32:16;;;;;;;0.00;0.00;;;10.50;99.90;;;;;;5074019;28;20044;-76
2022/09/26 02:34:45;;;;;;;0.10;0.10;;;10.50;99.90;;;;;;5081492;28;20174;-75
2022/09/26 02:37:13;;;;;;;0.05;0.05;;;10.50;99.90;;;;;;5066982;28;20048;-75
2022/09/26 02:39:42;;;;;;;0.13;0.13;;;10.40;99.90;;;;;;5066966;28;20110;-75
2022/09/26 02:42:32;;;;;;;0.00;0.00;;;10.40;99.90;;;;;;5066954;28;20055;-75
2022/09/26 02:45:09;;;;;;;0.00;0.00;;;10.30;99.90;;;;;;5048967;28;20406;-76
2022/09/26 02:48:07;;;;;;;0.00;0.00;;;10.30;99.90;;;;;;5067553;28;20052;-76
2022/09/26 02:50:51;;;;;;;1.00;0.80;;;10.20;99.90;;;;;;5069131;28;20070;-76
2022/09/26 02:53:25;;;;;;;0.00;0.00;;;10.20;99.90;;;;;;5073052;28;20413;-77
2022/09/26 02:56:06;;;;;;;0.20;0.20;;;10.40;99.90;;;;;;5094647;28;20048;-78
2022/09/26 02:58:53;;;;;;;0.00;0.00;;;10.10;99.90;;;;;;5108018;28;20052;-79
2022/09/26 03:02:17;;;;;;;0.00;0.00;;;10.10;99.90;;;;;;5104410;28;20044;-79
2022/09/26 03:05:05;;;;;;;0.00;0.00;;;10.10;99.90;;;;;;5049302;28;20053;-79
2022/09/26 03:07:48;;;;;;;0.00;0.00;;;10.10;99.90;;;;;;5106811;28;20062;-77
2022/09/26 03:10:15;;;;;;;0.15;0.15;;;10.10;99.90;;;;;;5105207;28;20096;-80
2022/09/26 03:12:43;;;;;;;0.17;0.17;;;10.10;99.90;;;;;;5104856;28;20051;-81
2022/09/26 03:15:11;;;;;;;0.13;0.13;;;10.10;99.90;;;;;;5105548;28;20052;-81
2022/09/26 03:17:46;;;;;;;0.00;0.00;;;10.10;99.90;;;;;;5106959;28;20052;-81
2022/09/26 03:20:20;;;;;;;0.28;0.10;;;10.00;99.90;;;;;;5105530;28;20035;-80
2022/09/26 03:22:46;;;;;;;0.15;0.15;;;10.10;99.90;;;;;;5105163;28;20044;-78
2022/09/26 03:25:20;;;;;;;1.45;0.75;;;10.10;99.90;;;;;;5097321;28;20059;-77
2022/09/26 03:27:46;;;;;;;0.70;0.52;;;10.10;99.90;;;;;;5099209;28;20402;-77
2022/09/26 03:30:14;;;;;;;0.57;0.50;;;10.10;99.90;;;;;;5095606;28;20047;-77
2022/09/26 03:32:40;;;;;;;0.10;0.10;;;10.00;99.90;;;;;;5098127;28;20044;-77
2022/09/26 03:35:07;;;;;;;2.65;0.47;;;10.10;99.90;;;;;;5097227;28;20040;-77
2022/09/26 03:37:36;;;;;;;0.20;0.20;;;10.10;99.90;;;;;;5111014;28;20066;-77
2022/09/26 03:40:07;;;;;;;0.60;0.38;;;10.10;99.90;;;;;;5118278;28;20071;-77
2022/09/26 03:42:33;;;;;;;0.20;0.20;;;10.00;99.90;;;;;;5118138;28;20055;-77
2022/09/26 03:45:03;;;;;;;0.95;0.55;;;10.10;99.90;;;;;;5118688;28;20046;-77
2022/09/26 03:47:30;;;;;;;0.63;0.47;;;10.10;99.90;;;;;;5105370;28;20051;-77
2022/09/26 03:49:55;;;;;;;0.32;0.32;;;10.20;99.90;;;;;;5095545;28;20044;-78
2022/09/26 03:52:23;;;;;;;0.65;0.57;;;10.20;99.90;;;;;;5094543;28;20052;-77
2022/09/26 03:54:49;;;;;;;1.60;1.00;;;10.20;99.90;;;;;;5094803;28;20421;-77
2022/09/26 03:57:16;;;;;;;0.20;0.20;;;10.20;99.90;;;;;;5092541;28;20048;-77
2022/09/26 03:59:42;;;;;;;0.80;0.57;;;10.20;99.90;;;;;;5091907;28;20074;-76
2022/09/26 04:02:08;;;;;;;0.10;0.10;;;10.20;99.90;;;;;;5072189;28;20052;-77
2022/09/26 04:04:34;;;;;;;1.13;1.02;;;10.20;99.90;;;;;;5093358;28;20055;-76
2022/09/26 04:07:00;;;;;;;0.10;0.10;;;10.20;99.90;;;;;;5092979;28;20044;-76
2022/09/26 04:09:26;;;;;;;0.90;0.90;;;10.20;99.90;;;;;;5092132;28;20055;-76
2022/09/26 04:11:52;;;;;;;0.10;0.10;;;10.20;99.90;;;;;;5091538;28;20127;-77
2022/09/26 04:14:18;;;;;;;0.15;0.15;;;10.20;99.90;;;;;;5093329;28;20056;-76
2022/09/26 04:16:44;;;;;;;0.73;0.65;;;10.20;99.90;;;;;;5091689;28;20043;-77
2022/09/26 04:19:14;;;;;;;0.17;0.13;;;10.20;99.90;;;;;;5092992;28;20119;-78
2022/09/26 04:21:40;;;;;;;0.20;0.20;;;10.10;99.90;;;;;;5092529;28;20048;-77
2022/09/26 04:24:18;;;;;;;0.22;0.22;;;10.20;99.90;;;;;;5093100;28;20113;-77
2022/09/26 04:26:44;;;;;;;2.65;0.82;;;10.20;99.90;;;;;;5092170;28;20450;-77
2022/09/26 04:29:10;;;;;;;0.10;0.10;;;10.10;99.90;;;;;;5096272;28;20043;-77
2022/09/26 04:31:36;;;;;;;0.17;0.17;;;10.10;99.90;;;;;;5075204;28;20059;-77
2022/09/26 04:34:03;;;;;;;0.52;0.52;;;10.10;99.90;;;;;;5095252;28;20063;-78
2022/09/26 04:36:29;;;;;;;1.35;0.55;;;10.10;99.90;;;;;;5094865;28;20482;-77
2022/09/26 04:38:59;;;;;;;0.17;0.17;;;10.10;99.90;;;;;;5115844;28;20040;-77
2022/09/26 04:41:26;;;;;;;1.20;0.90;;;10.10;99.90;;;;;;5114020;28;20040;-77
2022/09/26 04:43:57;;;;;;;1.40;0.60;;;10.10;99.90;;;;;;5110997;28;20508;-77
2022/09/26 04:46:26;;;;;;;0.30;0.30;;;10.10;99.90;;;;;;5089291;28;20040;-76
2022/09/26 04:48:53;;;;;;;0.65;0.43;;;10.10;99.90;;;;;;5086721;28;20067;-76
2022/09/26 04:51:21;;;;;;;0.82;0.63;;;10.40;99.90;;;;;;5091285;28;20123;-77
2022/09/26 04:53:47;;;;;;;1.48;1.10;;;10.10;99.90;;;;;;5092574;28;20047;-78
2022/09/26 04:56:14;;;;;;;0.50;0.50;;;10.10;99.90;;;;;;5093803;28;20048;-78
2022/09/26 04:58:41;;;;;;;0.05;0.05;;;10.10;99.90;;;;;;5088888;28;20111;-77
2022/09/26 05:01:09;;;;;;;0.20;0.20;;;10.10;99.90;;;;;;5072350;28;20154;-77
2022/09/26 05:03:38;;;;;;;0.52;0.40;;;10.10;99.90;;;;;;5089312;28;20405;-79
2022/09/26 05:06:06;;;;;;;0.00;0.00;;;11.10;99.90;;;;;;5089214;28;20579;-78
2022/09/26 05:08:32;;;;;;;1.55;0.45;;;10.10;99.90;;;;;;5070679;28;20074;-77
2022/09/26 05:10:58;;;;;;;0.63;0.57;;;10.40;99.90;;;;;;5088714;28;20071;-77
2022/09/26 05:13:25;;;;;;;0.65;0.63;;;10.10;99.90;;;;;;5089762;28;20040;-78
2022/09/26 05:15:54;;;;;;;1.30;0.60;;;10.10;99.90;;;;;;5081826;28;20048;-77
2022/09/26 05:18:25;;;;;;;0.13;0.13;;;10.20;99.90;;;;;;5064802;28;20059;-77
2022/09/26 05:20:51;;;;;;;0.57;0.57;;;10.20;99.90;;;;;;5083480;28;20405;-77
2022/09/26 05:26:21;;;;;;;1.02;0.63;;;10.10;99.90;;;;;;5085530;28;20386;-79
2022/09/26 05:28:54;;;;;;;5.63;1.55;;;10.10;99.90;;;;;;5085906;28;20079;-78
2022/09/26 05:31:24;;;;;;;1.08;0.82;;;10.10;99.90;;;;;;5083404;28;20040;-78
2022/09/26 05:33:50;;;;;;;0.30;0.30;;;10.10;99.90;;;;;;5085373;28;20090;-77
2022/09/26 05:36:18;;;;;;;0.40;0.40;;;10.10;99.90;;;;;;5087770;28;20075;-78
2022/09/26 05:38:44;;;;;;;0.20;0.20;;;10.10;99.90;;;;;;5088480;28;20067;-78
2022/09/26 05:41:12;;;;;;;0.22;0.22;;;10.10;99.90;;;;;;5086305;28;20051;-79
2022/09/26 05:43:37;;;;;;;1.55;1.10;;;10.10;99.90;;;;;;5086612;28;20083;-78
2022/09/26 05:46:06;;;;;;;0.22;0.22;;;10.10;99.90;;;;;;5086348;28;20087;-79
2022/09/26 05:48:34;;;;;;;0.52;0.52;;;10.00;99.90;;;;;;5086986;28;20060;-78
2022/09/26 05:51:14;;;;;;;3.17;1.15;;;10.10;99.90;;;;;;5088675;28;20044;-79
2022/09/26 05:53:41;;;;;;;0.70;0.70;;;10.40;99.90;;;;;;5087037;28;20062;-79
2022/09/26 05:56:08;;;;;;;0.60;0.43;;;10.10;99.90;;;;;;5085714;28;20044;-78
2022/09/26 05:58:35;;;;;;;2.55;0.40;;;10.10;99.90;;;;;;5085092;28;20524;-77
2022/09/26 06:01:07;;;;;;;2.10;0.85;;;10.10;99.90;;;;;;5084812;28;20506;-78
2022/09/26 06:03:33;;;;;;;1.65;1.20;;;10.10;99.90;;;;;;5085821;28;20052;-78
2022/09/26 06:06:25;;;;;;;0.55;0.55;;;10.10;99.90;;;;;;5084985;28;20040;-78
2022/09/26 06:08:51;;;;;;;0.70;0.60;;;10.10;99.90;;;;;;5080359;28;20127;-76
2022/09/26 06:11:23;;;;;;;0.20;0.20;;;10.00;99.90;;;;;;5085155;28;20542;-78
2022/09/26 06:13:49;;;;;;;0.40;0.40;;;10.00;99.90;;;;;;5085442;28;20063;-77
2022/09/26 06:16:18;;;;;;;0.13;0.13;;;10.10;99.90;;;;;;5084932;28;20109;-79
2022/09/26 06:18:45;;;;;;;0.63;0.60;;;10.00;99.90;;;;;;5085225;28;20521;-78
2022/09/26 06:21:12;;;;;;;3.55;1.35;;;10.00;99.90;;;;;;5085802;28;20120;-77
2022/09/26 06:23:39;;;;;;;0.73;0.60;;;10.00;99.90;;;;;;5084686;28;20050;-79
2022/09/26 06:26:07;;;;;;;0.40;0.40;;;10.00;99.90;;;;;;5085557;28;20081;-78
2022/09/26 06:28:34;;;;;;;1.45;1.08;;;10.00;99.90;;;;;;5067297;28;20101;-78
2022/09/26 06:31:00;;;;;;;1.67;0.22;;;10.60;99.90;;;;;;5066777;28;20071;-79
2022/09/26 06:33:28;;;;;;;0.80;0.70;;;10.00;99.90;;;;;;5066784;28;20497;-78
2022/09/26 06:36:02;;;;;;;5.93;1.65;;;10.00;99.90;;;;;;5084277;28;20489;-78
2022/09/26 06:38:28;;;;;;;1.08;0.90;;;10.00;99.90;;;;;;5084378;28;20052;-78
2022/09/26 06:40:53;;;;;;;1.58;1.08;;;9.90;99.90;;;;;;5084316;28;20040;-80
2022/09/26 06:43:20;;;;;;;0.77;0.50;;;10.00;99.90;;;;;;5084232;28;20040;-78
2022/09/26 06:45:47;;;;;;;3.40;1.10;;;9.90;99.90;;;;;;5084900;28;20048;-79
2022/09/26 06:48:14;;;;;;;0.05;0.05;;;9.90;99.90;;;;;;5083138;28;20048;-79
2022/09/26 06:50:40;;;;;;;0.17;0.17;;;9.90;99.90;;;;;;5084271;28;20048;-78
2022/09/26 06:53:05;;;;;;;0.43;0.43;;;9.90;99.90;;;;;;5084069;28;20044;-78
2022/09/26 06:55:31;;;;;;;0.22;0.22;;;9.80;99.90;;;;;;5084252;28;20482;-77
2022/09/26 06:57:57;;;;;;;0.73;0.55;;;9.90;99.90;;;;;;5083963;28;20486;-79
2022/09/26 07:00:23;;;;;;;0.68;0.47;;;9.80;99.90;;;;;;5084280;28;20056;-79
2022/09/26 07:02:54;;;;;;;1.20;0.25;;;9.80;99.90;;;;;;5084179;28;20060;-78
2022/09/26 07:05:21;;;;;;;0.00;0.00;;;9.80;99.90;;;;;;5083874;28;20048;-78
2022/09/26 07:07:47;;;;;;;1.45;0.93;;;10.90;99.90;;;;;;5084019;28;20040;-78
2022/09/26 07:10:17;;;;;;;0.00;0.00;;;9.90;99.90;;;;;;5084355;28;20051;-78
2022/09/26 07:12:45;;;;;;;2.17;1.15;;;9.90;99.90;;;;;;5066033;28;20051;-78
2022/09/26 07:15:18;;;;;;;0.20;0.20;;;9.80;99.90;;;;;;5084320;28;20155;-78
2022/09/26 07:17:47;;;;;;;0.08;0.08;;;9.20;99.90;;;;;;5084131;28;20083;-78
2022/09/26 07:20:15;;;;;;;0.47;0.35;;;9.90;99.90;;;;;;5084861;28;20126;-80
2022/09/26 07:22:45;;;;;;;1.55;0.80;;;9.80;99.90;;;;;;5069600;28;20044;-78
2022/09/26 07:25:11;;;;;;;0.13;0.10;;;9.80;99.90;;;;;;5088416;28;20051;-79
2022/09/26 07:27:38;;;;;;;0.75;0.30;;;9.80;99.90;;;;;;5069960;28;20079;-78
2022/09/26 07:30:06;;;;;;;0.17;0.17;;;9.80;99.90;;;;;;5088201;28;20083;-78
2022/09/26 07:32:32;;;;;;;0.15;0.15;;;9.80;99.90;;;;;;5087714;28;20048;-78
2022/09/26 07:35:02;;;;;;;0.47;0.47;;;9.90;99.90;;;;;;5088077;28;20054;-77
2022/09/26 07:37:28;;;;;;;0.30;0.30;;;9.90;99.90;;;;;;5080920;28;20056;-78
2022/09/26 07:39:54;;;;;;;0.38;0.38;;;9.90;99.90;;;;;;5082197;28;20166;-79
2022/09/26 07:42:20;;;;;;;0.30;0.30;;;10.00;99.90;;;;;;5082669;28;20040;-77
2022/09/26 07:44:46;;;;;;;0.17;0.17;;;10.40;99.90;;;;;;5082172;28;20132;-78
2022/09/26 07:50:11;;;;;;;22.90;0.98;;;10.00;99.90;;;;;;5041609;28;20293;-78
2022/09/26 07:52:38;;;;;;;;;;;10.00;99.90;;;;;;5062580;28;20048;-79
2022/09/26 07:55:03;;;;;;;0.10;0.10;;;10.00;99.90;;;;;;5080774;28;19954;-78
2022/09/26 07:57:34;;;;;;;0.55;0.35;;;10.00;99.90;;;;;;5080734;28;20074;-78
2022/09/26 08:00:13;;;;;;;0.38;0.30;;;10.10;99.90;;;;;;5062522;28;20463;-78
2022/09/26 08:02:41;;;;;;;0.85;0.70;;;10.10;99.90;;;;;;5081601;28;20039;-79
2022/09/26 08:05:09;;;;;;;0.40;0.35;;;10.20;99.90;;;;;;5081265;28;20044;-77
2022/09/26 08:07:35;;;;;;;0.08;0.08;;;10.20;99.90;;;;;;5081606;28;20048;-77
2022/09/26 08:10:05;;;;;;;10.73;0.68;;;10.20;99.90;;;;;;5081623;28;20440;-78
2022/09/26 08:12:35;;;;;;;0.65;0.65;;;10.20;99.90;;;;;;5081120;28;20079;-79
2022/09/26 08:15:04;;;;;;;1.25;1.02;;;10.40;99.90;;;;;;5080223;28;20177;-77
2022/09/26 08:17:33;;;;;;;0.10;0.10;;;10.30;99.90;;;;;;5081434;28;20044;-77
2022/09/26 08:20:00;;;;;;;0.68;0.40;;;10.30;99.90;;;;;;5080700;28;20075;-78
2022/09/26 08:22:26;;;;;;;0.25;0.25;;;10.40;99.90;;;;;;5081467;28;20048;-78
2022/09/26 08:24:54;;;;;;;0.57;0.50;;;10.50;99.90;;;;;;5081238;28;20084;-77
2022/09/26 08:27:21;;;;;;;0.90;0.38;;;10.40;99.90;;;;;;5081886;28;20088;-77
2022/09/26 08:29:49;;;;;;;0.20;0.20;;;10.40;99.90;;;;;;5081235;28;20052;-77
2022/09/26 08:32:16;;;;;;;2.55;2.00;;;10.40;99.90;;;;;;5080336;28;20829;-77
2022/09/26 08:34:43;;;;;;;1.50;0.88;;;10.50;99.90;;;;;;5080996;28;20066;-76
2022/09/26 08:37:09;;;;;;;0.30;0.20;;;10.40;99.90;;;;;;5080187;28;20059;-78
2022/09/26 08:39:35;;;;;;;0.63;0.30;;;10.40;99.90;;;;;;5080228;28;20040;-77
2022/09/26 08:42:12;;;;;;;0.55;0.43;;;10.40;99.90;;;;;;5061764;28;20093;-77
2022/09/26 08:46:28;;;;;;;2.45;0.65;;;10.40;99.90;;;;;;5080190;28;20102;-77
2022/09/26 08:48:19;;;;;;;0.25;0.25;;;10.50;99.90;;;;;;5078125;28;20161;-77
2022/09/26 08:50:52;;;;;;;0.03;0.03;;;10.50;99.90;;;;;;5063746;28;20147;-77
2022/09/26 08:53:23;;;;;;;0.22;0.15;;;10.50;99.90;;;;;;5082235;28;20063;-76
2022/09/26 08:55:52;;;;;;;0.43;0.30;;;10.50;99.90;;;;;;5080633;28;20047;-76
2022/09/26 08:58:25;;;;;;;0.52;0.30;;;10.60;99.90;;;;;;5080029;28;20071;-76
2022/09/26 09:00:56;;;;;;;0.20;0.20;;;10.60;99.90;;;;;;5080818;28;20525;-77
2022/09/26 09:03:57;;;;;;;0.28;0.28;;;10.70;99.90;;;;;;5080275;28;20071;-76
2022/09/26 09:06:26;;;;;;;0.52;0.45;;;10.80;99.90;;;;;;5062315;28;20055;-76
2022/09/26 09:08:56;;;;;;;0.20;0.20;;;10.80;99.90;;;;;;5079690;28;20055;-75
2022/09/26 09:11:43;;;;;;;0.47;0.30;;;10.90;99.90;;;;;;5079784;28;20040;-77
2022/09/26 09:14:21;;;;;;;;;;;10.90;99.90;;;;;;5079005;28;20063;-76
2022/09/26 09:17:13;;;;;;;0.40;0.40;;;10.90;99.90;;;;;;5079591;28;19924;-77
2022/09/26 09:19:47;;;;;;;0.57;0.30;;;10.90;99.90;;;;;;5064147;28;20044;-76
2022/09/26 09:22:25;;;;;;;0.30;0.22;;;11.00;99.90;;;;;;5062281;28;20399;-76
2022/09/26 09:24:59;;;;;;;0.25;0.25;;;11.00;99.90;;;;;;5079905;28;20048;-75
2022/09/26 09:27:48;;;;;;;0.13;0.13;;;11.00;99.90;;;;;;5080080;28;20300;-75
2022/09/26 09:30:24;;;;;;;0.10;0.10;;;11.00;99.90;;;;;;5060642;28;20075;-76
2022/09/26 09:32:59;;;;;;;0.90;0.10;;;11.00;99.90;;;;;;5078975;28;20417;-78
2022/09/26 09:35:40;;;;;;;0.00;0.00;;;11.00;99.90;;;;;;5077568;28;20297;-76
2022/09/26 09:38:09;;;;;;;0.28;0.28;;;11.00;99.90;;;;;;5077693;28;20120;-77
2022/09/26 09:41:02;;;;;;;0.43;0.22;;;11.10;99.90;;;;;;5060694;28;20063;-76
2022/09/26 09:43:32;;;;;;;0.75;0.63;;;11.10;99.90;;;;;;5052952;28;20044;-78
2022/09/26 09:46:18;;;;;;;0.00;0.00;;;11.10;99.90;;;;;;5077408;28;20147;-77
2022/09/26 09:48:47;;;;;;;0.22;0.20;;;11.10;99.90;;;;;;5060555;28;20048;-76
2022/09/26 09:51:21;;;;;;;0.15;0.15;;;11.20;99.90;;;;;;5076676;28;20098;-76
2022/09/26 09:54:24;;;;;;;0.20;0.20;;;11.10;99.90;;;;;;5078979;28;20040;-77
2022/09/26 09:56:50;;;;;;;1.95;1.25;;;11.20;99.90;;;;;;5020206;28;20478;-75
2022/09/26 09:59:46;;;;;;;0.82;0.10;;;11.10;99.90;;;;;;5079201;28;20052;-77
2022/09/26 10:02:38;;;;;;;0.75;0.60;;;11.10;99.90;;;;;;5076962;28;20048;-76
2022/09/26 10:05:33;;;;;;;0.00;0.00;;;11.00;99.90;;;;;;5065020;28;20060;-76
2022/09/26 10:08:00;;;;;;;0.10;0.10;;;11.00;99.90;;;;;;5065795;28;20059;-77
2022/09/26 10:10:55;;;;;;;0.47;0.20;;;11.10;99.90;;;;;;5073098;28;20044;-76
2022/09/26 10:13:24;;;;;;;0.93;0.22;;;11.20;99.90;;;;;;5077460;28;20043;-75
2022/09/26 10:16:16;;;;;;;0.17;0.17;;;11.10;99.90;;;;;;5076420;28;20444;-75
2022/09/26 10:19:06;;;;;;;1.63;0.70;;;11.20;99.90;;;;;;5075684;28;20475;-76
2022/09/26 10:21:47;;;;;;;0.20;0.20;;;11.20;99.90;;;;;;5064241;28;20148;-75
2022/09/26 10:24:44;;;;;;;1.15;0.90;;;11.30;99.90;;;;;;5046306;28;20387;-77
2022/09/26 10:27:21;;;;;;;0.10;0.10;;;11.30;99.90;;;;;;5064189;28;20119;-78
2022/09/26 10:29:59;;;;;;;0.10;0.10;;;11.30;99.90;;;;;;5045802;28;20123;-77
2022/09/26 10:32:28;;;;;;;0.22;0.20;;;11.30;99.90;;;;;;5064485;28;20056;-76
2022/09/26 10:35:24;;;;;;;0.63;0.63;;;11.30;99.90;;;;;;5064124;28;20170;-76
2022/09/26 10:38:06;;;;;;;0.25;0.10;;;11.30;99.90;;;;;;5064487;28;20048;-77
2022/09/26 10:40:46;;;;;;;0.45;0.38;;;11.40;99.90;;;;;;5064307;28;20431;-76
2022/09/26 10:43:33;;;;;;;3.70;1.08;;;11.30;99.90;;;;;;5064358;28;20044;-76
2022/09/26 10:46:12;;;;;;;0.22;0.22;;;11.30;99.90;;;;;;5064481;28;20136;-76
2022/09/26 10:48:50;;;;;;;0.20;0.20;;;11.30;99.90;;;;;;5064213;28;20056;-76
2022/09/26 10:51:26;;;;;;;1.15;0.95;;;11.30;99.90;;;;;;5064268;28;20137;-75
2022/09/26 10:54:00;;;;;;;0.22;0.22;;;11.30;99.90;;;;;;5064414;28;20113;-76
2022/09/26 10:56:30;;;;;;;0.30;0.28;;;11.30;99.90;;;;;;5048642;28;20182;-77
2022/09/26 10:59:04;;;;;;;0.28;0.22;;;11.30;99.90;;;;;;5068568;28;20053;-76
2022/09/26 11:01:37;;;;;;;0.60;0.35;;;11.30;99.90;;;;;;5068416;28;20060;-77
2022/09/26 11:07:34;;;;;;;0.20;0.20;;;11.30;99.90;;;;;;5033490;28;20059;-78
2022/09/26 11:10:05;;;;;;;0.25;0.25;;;11.30;99.90;;;;;;5087627;28;20048;-80
2022/09/26 11:15:13;;;;;;;0.20;0.20;;;11.30;99.90;;;;;;5782699;22;20789;-81
2022/09/26 11:17:47;;;;;;;0.20;0.20;;;11.30;99.90;;;;;;5075285;28;20044;-79
2022/09/26 11:20:42;;;;;;;0.57;0.45;;;11.30;99.90;;;;;;5068751;28;20123;-81
2022/09/26 11:23:49;;;;;;;0.70;0.45;;;11.40;99.90;;;;;;5030826;28;20066;-81
2022/09/26 11:26:32;;;;;;;0.10;0.10;;;11.30;99.90;;;;;;5063155;28;20110;-79
2022/09/26 11:29:36;;;;;;;0.73;0.57;;;11.30;99.90;;;;;;5065948;28;20052;-79
2022/09/26 11:32:03;;;;;;;0.10;0.10;;;11.30;99.90;;;;;;5066182;28;20056;-79
2022/09/26 11:34:31;;;;;;;0.40;0.28;;;11.30;99.90;;;;;;5066032;28;20107;-77
2022/09/26 11:37:16;;;;;;;0.00;0.00;;;11.30;99.90;;;;;;5065564;28;20044;-82
2022/09/26 11:40:11;;;;;;;0.98;0.65;;;11.30;99.90;;;;;;5065770;28;20048;-77
2022/09/26 11:42:58;;;;;;;0.22;0.20;;;11.30;99.90;;;;;;5065936;28;20048;-79
2022/09/26 11:45:51;;;;;;;1.27;0.88;;;11.40;99.90;;;;;;5048229;28;20498;-79
2022/09/26 11:48:47;;;;;;;2.90;0.60;;;11.40;99.90;;;;;;5078910;28;20097;-78
2022/09/26 11:51:38;;;;;;;0.47;0.33;;;11.40;99.90;;;;;;5090074;28;20052;-79
2022/09/26 11:54:23;;;;;;;0.00;0.00;;;11.40;99.90;;;;;;5089808;28;20135;-79
2022/09/26 11:56:54;;;;;;;0.20;0.20;;;11.40;99.90;;;;;;5072113;28;20068;-79
2022/09/26 11:59:39;;;;;;;0.70;0.63;;;11.50;99.90;;;;;;5089034;28;20036;-80
2022/09/26 12:02:32;;;;;;;0.52;0.50;;;11.40;99.90;;;;;;5089345;28;20094;-81
2022/09/26 12:05:29;;;;;;;0.17;0.17;;;11.50;99.90;;;;;;5089096;28;20040;-79
2022/09/26 12:08:20;;;;;;;0.85;0.73;;;11.40;99.90;;;;;;5088840;28;20047;-81
2022/09/26 12:10:49;;;;;;;0.43;0.43;;;11.50;99.90;;;;;;5090033;28;20131;-79
2022/09/26 12:13:20;;;;;;;0.30;0.30;;;11.50;99.90;;;;;;5090050;28;20452;-80
2022/09/26 12:15:57;;;;;;;0.00;0.00;;;11.50;99.90;;;;;;5088997;28;20056;-80
2022/09/26 12:18:38;;;;;;;0.22;0.22;;;11.50;99.90;;;;;;5088929;28;20055;-79
2022/09/26 12:21:35;;;;;;;1.02;0.47;;;11.50;99.90;;;;;;5088426;28;20581;-79
2022/09/26 12:24:22;;;;;;;2.95;0.45;;;11.60;99.90;;;;;;5087619;28;20043;-80
2022/09/26 12:27:14;;;;;;;1.48;0.85;;;11.70;99.90;;;;;;5089285;28;20070;-81
2022/09/26 12:30:03;;;;;;;0.20;0.20;;;11.60;99.90;;;;;;5070307;28;20044;-81
2022/09/26 12:32:59;;;;;;;0.00;0.00;;;11.60;99.90;;;;;;5079776;28;20044;-82
2022/09/26 12:35:46;;;;;;;0.40;0.40;;;11.60;99.90;;;;;;5068915;28;20095;-81
2022/09/26 12:38:14;;;;;;;0.57;0.40;;;11.70;99.90;;;;;;5069092;28;20497;-82
2022/09/26 12:41:02;;;;;;;0.00;0.00;;;11.70;99.90;;;;;;5068929;28;20057;-79
2022/09/26 12:43:55;;;;;;;0.80;0.55;;;11.70;99.90;;;;;;5066980;28;20495;-80
2022/09/26 12:46:59;;;;;;;0.00;0.00;;;11.80;99.90;;;;;;5068137;28;20053;-81
2022/09/26 12:49:46;;;;;;;0.13;0.13;;;11.80;99.90;;;;;;4966460;28;20107;-80
2022/09/26 12:52:29;;;;;;;0.15;0.15;;;11.80;99.90;;;;;;4955624;28;20389;-79
2022/09/26 12:55:43;;;;;;;0.32;0.32;;;11.80;99.90;;;;;;5041289;28;20060;-80
2022/09/26 12:58:12;;;;;;;0.00;0.00;;;11.80;99.90;;;;;;5004581;28;20053;-81
2022/09/26 13:00:55;;;;;;;0.00;0.00;;;11.80;99.90;;;;;;5071417;28;20506;-82
2022/09/26 13:03:21;;;;;;;0.30;0.30;;;11.80;99.90;;;;;;5087242;28;20059;-79
2022/09/26 13:06:05;;;;;;;6.00;0.70;;;11.80;99.90;;;;;;5086974;28;20044;-78
2022/09/26 13:08:47;;;;;;;0.10;0.10;;;11.80;99.90;;;;;;5084479;28;20051;-79
2022/09/26 13:11:48;;;;;;;0.40;0.40;;;11.80;99.90;;;;;;5084104;28;20170;-80
2022/09/26 13:14:32;;;;;;;0.52;0.32;;;11.90;99.90;;;;;;5084277;28;20044;-81
2022/09/26 13:17:09;;;;;;;0.32;0.20;;;11.90;99.90;;;;;;5066326;28;20067;-79
2022/09/26 13:19:45;;;;;;;0.10;0.10;;;12.00;99.90;;;;;;5084225;28;20044;-81
2022/09/26 13:22:19;;;;;;;;;;;12.00;99.90;;;;;;5084434;28;20410;-79
2022/09/26 13:24:51;;;;;;;0.10;0.08;;;12.10;99.90;;;;;;5083734;28;19923;-78
2022/09/26 13:27:37;;;;;;;0.00;0.00;;;12.10;99.90;;;;;;5084260;28;20047;-78
2022/09/26 13:30:14;;;;;;;0.75;0.32;;;12.20;99.90;;;;;;5065940;28;20079;-78
2022/09/26 13:33:02;;;;;;;0.90;0.50;;;12.30;99.90;;;;;;5083796;28;20047;-79
2022/09/26 13:35:30;;;;;;;0.03;0.03;;;12.40;99.90;;;;;;5084241;28;20048;-78
2022/09/26 13:38:14;;;;;;;0.00;0.00;;;12.50;99.90;;;;;;5084282;28;20059;-78